Time;durP1;ratioP1;P1;durP2;ratioP2;P2;SDS_P1;SDS_P2;PMS_P1;PMS_P2;Temp;Humidity;BMP_temperature;BMP_pressure;BME280_temperature;BME280_humidity;BME280_pressure;Samples;Min_cycle;Max_cycle;Signal;HPM_P1;HPM_P2
2023/01/27 00:01:56;;;;;;;17.63;7.68;;;4.00;99.90;;;;;;5043559;28;20049;-48
2023/01/27 00:04:22;;;;;;;18.00;7.40;;;4.10;99.90;;;;;;5043453;28;20403;-51
2023/01/27 00:06:48;;;;;;;18.55;8.07;;;4.00;99.90;;;;;;5043441;28;20044;-50
2023/01/27 00:09:14;;;;;;;16.92;8.02;;;3.90;99.90;;;;;;5043127;28;20041;-48
2023/01/27 00:14:24;;;;;;;15.43;7.68;;;4.00;99.90;;;;;;5042802;28;20116;-51
2023/01/27 00:16:50;;;;;;;16.63;7.80;;;4.00;99.90;;;;;;5042945;28;20536;-50
2023/01/27 00:19:18;;;;;;;15.82;7.45;;;4.00;99.90;;;;;;5042847;28;20041;-51
2023/01/27 00:24:35;;;;;;;18.40;8.02;;;4.00;99.90;;;;;;5042680;28;20059;-50
2023/01/27 00:27:07;;;;;;;18.33;8.25;;;4.00;99.90;;;;;;5042712;28;20119;-51
2023/01/27 00:29:40;;;;;;;20.75;8.77;;;4.00;99.90;;;;;;5042663;28;20079;-50
2023/01/27 00:34:50;;;;;;;;;;;4.10;99.90;;;;;;5042821;28;20044;-50
2023/01/27 00:37:15;;;;;;;23.80;8.93;;;4.00;99.90;;;;;;5042725;28;19913;-48
2023/01/27 00:39:41;;;;;;;18.25;9.73;;;4.00;99.90;;;;;;5042564;28;20043;-51
2023/01/27 00:42:07;;;;;;;19.05;9.93;;;3.90;99.90;;;;;;5042417;28;20087;-49
2023/01/27 00:44:33;;;;;;;22.80;10.48;;;3.90;99.90;;;;;;5041784;28;20044;-49
2023/01/27 00:46:58;;;;;;;25.25;11.13;;;4.00;99.90;;;;;;5042496;28;20492;-49
2023/01/27 00:49:24;;;;;;;18.75;9.88;;;4.00;99.90;;;;;;5041338;28;20033;-49
2023/01/27 00:51:50;;;;;;;18.92;10.30;;;3.80;99.90;;;;;;5042654;28;20123;-52
2023/01/27 00:54:16;;;;;;;19.52;10.93;;;4.00;99.90;;;;;;5041108;28;20166;-49
2023/01/27 00:56:42;;;;;;;18.92;10.18;;;3.80;99.90;;;;;;5041343;28;20126;-47
2023/01/27 00:59:08;;;;;;;19.00;9.95;;;3.90;99.90;;;;;;5042238;28;20080;-51
2023/01/27 01:01:34;;;;;;;20.95;10.95;;;3.90;99.90;;;;;;5041850;28;20040;-50
2023/01/27 01:04:00;;;;;;;18.83;10.40;;;3.80;99.90;;;;;;5042037;28;20118;-50
2023/01/27 01:06:27;;;;;;;17.50;10.90;;;4.40;99.90;;;;;;5042121;28;20264;-49
2023/01/27 01:08:55;;;;;;;18.83;11.27;;;4.00;99.90;;;;;;5041786;28;20025;-48
2023/01/27 01:11:21;;;;;;;17.77;10.50;;;3.90;99.90;;;;;;5041467;28;20041;-50
2023/01/27 01:13:47;;;;;;;20.42;11.20;;;3.90;99.90;;;;;;5041785;28;20116;-52
2023/01/27 01:16:20;;;;;;;16.83;10.73;;;3.90;99.90;;;;;;5040695;28;20182;-50
2023/01/27 01:18:46;;;;;;;21.63;10.95;;;3.80;99.90;;;;;;5041716;28;20120;-47
2023/01/27 01:21:12;;;;;;;20.17;11.45;;;3.90;99.90;;;;;;5042229;28;20069;-50
2023/01/27 01:23:43;;;;;;;19.13;10.40;;;4.00;99.90;;;;;;5041445;28;20049;-49
2023/01/27 01:26:10;;;;;;;18.00;10.30;;;3.90;99.90;;;;;;5041809;28;20045;-51
2023/01/27 01:28:36;;;;;;;16.58;10.45;;;4.00;99.90;;;;;;5042198;28;20036;-49
2023/01/27 01:31:20;;;;;;;19.35;11.50;;;3.80;99.90;;;;;;5041635;28;20029;-47
2023/01/27 01:33:47;;;;;;;19.85;10.80;;;3.80;99.90;;;;;;5042095;28;20047;-49
2023/01/27 01:36:19;;;;;;;16.42;10.60;;;3.90;99.90;;;;;;5041391;28;20045;-49
2023/01/27 01:38:45;;;;;;;19.42;10.65;;;4.20;99.90;;;;;;5041316;28;20048;-49
2023/01/27 01:41:14;;;;;;;16.67;9.63;;;3.90;99.90;;;;;;5040672;28;20049;-48
2023/01/27 01:43:39;;;;;;;16.77;9.77;;;3.80;99.90;;;;;;5041356;28;20040;-50
2023/01/27 01:46:07;;;;;;;16.58;9.43;;;4.00;99.90;;;;;;5041629;28;20392;-49
2023/01/27 01:48:41;;;;;;;15.68;9.40;;;3.80;99.90;;;;;;5040134;28;20036;-49
2023/01/27 01:51:33;;;;;;;14.40;8.30;;;4.10;99.90;;;;;;5041548;28;20037;-51
2023/01/27 01:54:08;;;;;;;14.05;8.32;;;4.20;99.90;;;;;;5038470;28;20049;-49
2023/01/27 01:56:33;;;;;;;16.30;8.10;;;5.20;99.90;;;;;;5045338;28;20124;-48
2023/01/27 01:59:04;;;;;;;14.52;8.32;;;3.90;99.90;;;;;;5045701;28;23092;-49
2023/01/27 02:01:30;;;;;;;12.43;7.85;;;4.20;99.90;;;;;;5044906;28;20033;-48
2023/01/27 02:03:59;;;;;;;16.00;7.20;;;3.80;99.90;;;;;;5045743;28;20039;-51
2023/01/27 02:06:26;;;;;;;12.98;7.53;;;3.80;99.90;;;;;;5045470;28;20473;-50
2023/01/27 02:08:53;;;;;;;11.68;7.03;;;3.90;99.90;;;;;;5045193;28;20150;-48
2023/01/27 02:11:19;;;;;;;12.70;7.07;;;3.80;99.90;;;;;;5043319;28;20041;-50
2023/01/27 02:13:45;;;;;;;12.00;6.25;;;3.90;99.90;;;;;;5045281;28;20171;-48
2023/01/27 02:16:12;;;;;;;9.77;5.43;;;4.40;99.90;;;;;;5045348;28;20511;-49
2023/01/27 02:18:40;;;;;;;11.68;5.82;;;3.90;99.90;;;;;;5045622;28;20468;-51
2023/01/27 02:21:06;;;;;;;9.43;5.63;;;3.80;99.90;;;;;;5044969;28;20041;-51
2023/01/27 02:24:11;;;;;;;8.40;5.05;;;3.90;99.90;;;;;;5044180;28;20163;-47
2023/01/27 02:26:43;;;;;;;9.68;4.72;;;3.90;99.90;;;;;;4985133;28;20050;-47
2023/01/27 02:29:12;;;;;;;11.90;5.35;;;3.90;99.90;;;;;;5002715;28;20066;-51
2023/01/27 02:31:38;;;;;;;9.10;5.40;;;3.90;99.90;;;;;;5031139;28;20057;-47
2023/01/27 02:34:16;;;;;;;8.80;5.68;;;3.90;99.90;;;;;;5044910;28;20167;-47
2023/01/27 02:37:02;;;;;;;8.95;5.47;;;3.90;99.90;;;;;;5044722;28;20036;-48
2023/01/27 02:39:42;;;;;;;10.13;5.78;;;4.00;99.90;;;;;;5044371;28;20120;-48
2023/01/27 02:42:11;;;;;;;10.60;6.45;;;4.40;99.90;;;;;;5044591;28;20471;-46
2023/01/27 02:44:36;;;;;;;9.57;5.90;;;3.90;99.90;;;;;;5056233;28;20045;-51
2023/01/27 02:47:02;;;;;;;11.18;6.55;;;3.90;99.90;;;;;;5044984;28;20083;-51
2023/01/27 02:49:28;;;;;;;10.15;6.28;;;4.20;99.90;;;;;;5044733;28;20025;-49
2023/01/27 02:51:54;;;;;;;10.93;6.97;;;4.00;99.90;;;;;;5044444;28;20396;-50
2023/01/27 02:54:19;;;;;;;11.27;7.07;;;3.90;99.90;;;;;;5045647;28;20037;-50
2023/01/27 02:56:45;;;;;;;12.68;7.00;;;3.90;99.90;;;;;;5043765;28;20048;-49
2023/01/27 02:59:10;;;;;;;11.45;6.88;;;4.00;99.90;;;;;;5044200;28;20408;-48
2023/01/27 03:01:36;;;;;;;15.70;7.47;;;3.90;99.90;;;;;;5043061;28;20060;-50
2023/01/27 03:04:02;;;;;;;9.60;6.60;;;3.80;99.90;;;;;;5044314;28;20029;-48
2023/01/27 03:06:28;;;;;;;12.73;7.53;;;3.90;99.90;;;;;;5043719;28;20033;-49
2023/01/27 03:08:53;;;;;;;10.88;6.82;;;3.80;99.90;;;;;;5044270;28;20523;-50
2023/01/27 03:14:04;;;;;;;8.65;5.63;;;4.00;99.90;;;;;;5043627;28;20055;-53
2023/01/27 03:19:14;;;;;;;9.35;5.40;;;3.90;99.90;;;;;;5044740;28;20097;-49
2023/01/27 03:21:40;;;;;;;10.80;5.60;;;3.80;99.90;;;;;;5044570;28;20036;-49
2023/01/27 03:24:06;;;;;;;9.43;5.15;;;3.90;99.90;;;;;;5043551;28;20060;-51
2023/01/27 03:26:31;;;;;;;8.35;4.85;;;3.90;99.90;;;;;;5044122;28;20036;-47
2023/01/27 03:31:41;;;;;;;8.93;4.63;;;4.10;99.90;;;;;;5043534;28;20051;-50
2023/01/27 03:34:07;;;;;;;8.40;4.80;;;3.90;99.90;;;;;;5044337;28;20029;-51
2023/01/27 03:47:29;;;;;;;8.25;3.30;;;3.90;99.90;;;;;;5044361;28;20390;-50
2023/01/27 03:49:55;;;;;;;8.75;3.53;;;4.40;99.90;;;;;;5043466;28;20036;-51
2023/01/27 03:52:21;;;;;;;6.20;2.72;;;3.90;99.90;;;;;;5043596;28;20472;-48
2023/01/27 03:54:47;;;;;;;5.28;2.85;;;4.10;99.90;;;;;;5043432;28;20574;-49
2023/01/27 03:57:13;;;;;;;4.65;2.53;;;4.00;99.90;;;;;;5043829;28;20037;-48
2023/01/27 03:59:38;;;;;;;5.75;2.95;;;4.00;99.90;;;;;;5044419;28;20183;-48
2023/01/27 04:07:36;;;;;;;3.10;2.03;;;4.30;99.90;;;;;;5042212;28;20029;-51
2023/01/27 04:10:05;;;;;;;5.18;2.35;;;4.40;99.90;;;;;;5042737;28;20029;-50
2023/01/27 04:12:31;;;;;;;3.88;2.10;;;4.00;99.90;;;;;;5042132;28;20070;-52
2023/01/27 04:14:56;;;;;;;4.68;1.80;;;4.10;99.90;;;;;;5041478;28;20045;-51
2023/01/27 04:17:22;;;;;;;4.90;2.30;;;4.00;99.90;;;;;;5041191;28;20048;-47
2023/01/27 04:19:48;;;;;;;4.20;2.00;;;4.00;99.90;;;;;;5043245;28;20072;-48
2023/01/27 04:22:15;;;;;;;4.68;2.10;;;4.00;99.90;;;;;;5043021;28;20424;-48
2023/01/27 04:24:41;;;;;;;3.60;2.00;;;4.00;99.90;;;;;;5042669;28;20567;-50
2023/01/27 04:27:11;;;;;;;4.78;2.03;;;4.00;99.90;;;;;;5042641;28;20116;-47
2023/01/27 04:29:42;;;;;;;3.92;1.92;;;4.00;99.90;;;;;;5043117;28;20029;-51
2023/01/27 04:32:09;;;;;;;5.63;2.42;;;4.00;99.90;;;;;;5042662;28;20033;-52
2023/01/27 04:34:36;;;;;;;6.97;2.40;;;4.10;99.90;;;;;;5043931;28;20110;-50
2023/01/27 04:37:03;;;;;;;5.28;2.13;;;4.50;99.90;;;;;;5042778;28;20143;-52
2023/01/27 04:39:29;;;;;;;4.45;2.20;;;4.00;99.90;;;;;;5042130;28;20122;-50
2023/01/27 04:41:55;;;;;;;10.38;2.65;;;4.30;99.90;;;;;;5042269;28;20041;-51
2023/01/27 04:44:22;;;;;;;4.57;2.67;;;3.90;99.90;;;;;;5041139;28;20064;-50
2023/01/27 04:46:48;;;;;;;4.50;2.30;;;4.00;99.90;;;;;;5042241;28;20128;-50
2023/01/27 04:49:14;;;;;;;4.82;2.38;;;4.30;99.90;;;;;;5042127;28;20079;-48
2023/01/27 04:51:40;;;;;;;6.75;2.25;;;4.00;99.90;;;;;;5042485;28;20383;-49
2023/01/27 04:54:06;;;;;;;4.50;2.33;;;3.90;99.90;;;;;;5042372;28;20492;-48
2023/01/27 04:56:41;;;;;;;5.32;2.22;;;4.00;99.90;;;;;;5042543;28;20091;-51
2023/01/27 04:59:11;;;;;;;8.07;2.60;;;3.90;99.90;;;;;;5041974;28;20033;-49
2023/01/27 05:01:36;;;;;;;5.45;2.47;;;4.20;99.90;;;;;;5041832;28;20538;-52
2023/01/27 05:04:02;;;;;;;4.82;2.35;;;3.90;99.90;;;;;;5042344;28;20061;-51
2023/01/27 05:06:28;;;;;;;5.07;2.42;;;3.90;99.90;;;;;;5041943;28;20476;-50
2023/01/27 05:08:54;;;;;;;6.43;2.15;;;3.90;99.90;;;;;;5042398;28;20094;-53
2023/01/27 05:11:20;;;;;;;4.50;1.95;;;4.40;99.90;;;;;;5041720;28;20037;-49
2023/01/27 05:13:46;;;;;;;5.72;2.40;;;3.80;99.90;;;;;;5042326;28;20048;-48
2023/01/27 05:16:15;;;;;;;4.45;2.03;;;4.20;99.90;;;;;;5042185;28;20499;-48
2023/01/27 05:18:42;;;;;;;3.63;2.00;;;3.80;99.90;;;;;;5041763;28;20045;-49
2023/01/27 05:21:11;;;;;;;6.18;2.10;;;3.80;99.90;;;;;;5042111;28;20141;-48
2023/01/27 05:23:36;;;;;;;6.38;2.42;;;4.30;99.90;;;;;;5041434;28;20060;-52
2023/01/27 05:26:05;;;;;;;5.40;2.08;;;3.80;99.90;;;;;;5041803;28;20045;-49
2023/01/27 05:28:31;;;;;;;4.00;2.22;;;3.80;99.90;;;;;;5041640;28;20029;-49
2023/01/27 05:31:06;;;;;;;4.90;2.42;;;3.80;99.90;;;;;;5040512;28;20043;-51
2023/01/27 05:33:32;;;;;;;9.90;2.30;;;3.80;99.90;;;;;;5041950;28;20049;-51
2023/01/27 05:35:59;;;;;;;5.03;2.45;;;3.80;99.90;;;;;;5041628;28;20029;-49
2023/01/27 05:38:25;;;;;;;5.97;2.35;;;3.90;99.90;;;;;;5040979;28;20098;-47
2023/01/27 05:41:00;;;;;;;5.60;2.17;;;3.80;99.90;;;;;;5041280;28;20044;-52
2023/01/27 05:43:30;;;;;;;4.70;2.10;;;3.80;99.90;;;;;;5041156;28;20059;-49
2023/01/27 05:46:02;;;;;;;4.65;2.33;;;3.80;99.90;;;;;;5041620;28;20082;-49
2023/01/27 05:48:28;;;;;;;3.55;1.90;;;3.70;99.90;;;;;;5041810;28;20038;-49
2023/01/27 05:50:55;;;;;;;5.20;2.30;;;3.70;99.90;;;;;;5041635;28;20087;-51
2023/01/27 05:53:22;;;;;;;8.13;2.30;;;3.70;99.90;;;;;;5039997;28;20558;-50
2023/01/27 05:55:49;;;;;;;5.13;2.03;;;3.70;99.90;;;;;;5041184;28;20082;-50
2023/01/27 05:58:15;;;;;;;5.00;2.10;;;3.90;99.90;;;;;;5040350;28;20040;-47
2023/01/27 06:00:40;;;;;;;5.88;2.25;;;3.70;99.90;;;;;;5040297;28;20039;-52
2023/01/27 06:03:06;;;;;;;4.15;2.08;;;3.70;99.90;;;;;;5042094;28;20087;-48
2023/01/27 06:05:31;;;;;;;4.65;2.08;;;3.70;99.90;;;;;;5041153;28;20044;-49
2023/01/27 06:07:57;;;;;;;4.65;2.47;;;3.80;99.90;;;;;;5039452;28;20033;-52
2023/01/27 06:10:23;;;;;;;8.40;2.50;;;3.70;99.90;;;;;;5041513;28;20087;-51
2023/01/27 06:12:48;;;;;;;5.43;2.38;;;3.70;99.90;;;;;;5041151;28;20041;-47
2023/01/27 06:15:14;;;;;;;5.03;2.33;;;3.70;99.90;;;;;;5023907;28;20506;-47
2023/01/27 06:17:40;;;;;;;6.28;2.40;;;3.70;99.90;;;;;;5041339;28;20490;-51
2023/01/27 06:20:06;;;;;;;5.93;2.08;;;3.70;99.90;;;;;;5041069;28;20040;-47
2023/01/27 06:22:32;;;;;;;5.88;2.55;;;3.70;99.90;;;;;;5041279;28;20083;-50
2023/01/27 06:24:57;;;;;;;8.45;2.15;;;3.70;99.90;;;;;;5039661;28;20052;-49
2023/01/27 06:27:23;;;;;;;7.35;2.85;;;3.70;99.90;;;;;;5041871;28;20041;-52
2023/01/27 06:29:49;;;;;;;8.00;2.60;;;3.70;99.90;;;;;;5042468;28;20464;-52
2023/01/27 06:32:14;;;;;;;6.13;2.30;;;3.70;99.90;;;;;;5041281;28;20078;-47
2023/01/27 06:34:40;;;;;;;6.13;2.17;;;3.70;99.90;;;;;;5041232;28;20060;-50
2023/01/27 06:37:06;;;;;;;4.68;2.20;;;3.80;99.90;;;;;;5041666;28;20524;-49
2023/01/27 06:39:31;;;;;;;4.97;2.17;;;3.70;99.90;;;;;;5041067;28;20041;-48
2023/01/27 06:41:57;;;;;;;4.88;2.22;;;3.70;99.90;;;;;;5040614;28;20125;-52
2023/01/27 06:44:23;;;;;;;6.25;2.22;;;3.70;99.90;;;;;;5044638;28;20043;-50
2023/01/27 06:46:48;;;;;;;4.82;2.10;;;3.60;99.90;;;;;;5044828;28;20041;-49
2023/01/27 06:49:14;;;;;;;5.93;2.10;;;3.60;99.90;;;;;;5043631;28;20037;-49
2023/01/27 06:51:40;;;;;;;5.10;2.45;;;3.70;99.90;;;;;;5042926;28;20037;-50
2023/01/27 06:54:05;;;;;;;6.82;2.17;;;3.80;99.90;;;;;;5043213;28;20041;-50
2023/01/27 06:56:31;;;;;;;5.38;1.92;;;3.80;99.90;;;;;;5044517;28;20128;-51
2023/01/27 06:58:57;;;;;;;8.27;2.00;;;3.60;99.90;;;;;;5043070;28;20455;-51
2023/01/27 07:01:22;;;;;;;5.28;2.20;;;3.60;99.90;;;;;;5045139;28;20049;-47
2023/01/27 07:03:48;;;;;;;4.50;2.10;;;3.60;99.90;;;;;;5044273;28;20118;-48
2023/01/27 07:06:15;;;;;;;5.85;2.20;;;3.50;99.90;;;;;;5043506;28;20025;-50
2023/01/27 07:08:41;;;;;;;5.57;2.20;;;3.50;99.90;;;;;;5044534;28;20380;-50
2023/01/27 07:11:07;;;;;;;8.02;2.38;;;3.50;99.90;;;;;;5042342;28;20021;-52
2023/01/27 07:13:32;;;;;;;6.97;2.33;;;4.50;99.90;;;;;;5041745;28;20523;-50
2023/01/27 07:15:59;;;;;;;5.55;2.95;;;3.50;99.90;;;;;;5044703;28;20068;-49
2023/01/27 07:18:24;;;;;;;5.30;2.67;;;3.60;99.90;;;;;;5043477;28;20100;-51
2023/01/27 07:20:50;;;;;;;7.70;2.70;;;3.50;99.90;;;;;;5044140;28;20174;-50
2023/01/27 07:23:16;;;;;;;6.03;3.00;;;3.50;99.90;;;;;;5042899;28;20037;-51
2023/01/27 07:25:43;;;;;;;4.57;2.38;;;3.50;99.90;;;;;;5042215;28;20048;-51
2023/01/27 07:28:09;;;;;;;6.35;2.60;;;3.50;99.90;;;;;;5042731;28;20068;-50
2023/01/27 07:30:36;;;;;;;9.32;3.05;;;3.50;99.90;;;;;;5040768;28;20080;-48
2023/01/27 07:33:06;;;;;;;6.03;3.00;;;3.50;99.90;;;;;;5043736;28;20556;-50
2023/01/27 07:35:32;;;;;;;5.43;2.80;;;3.40;99.90;;;;;;5050345;28;20033;-49
2023/01/27 07:37:58;;;;;;;6.97;3.10;;;3.80;99.90;;;;;;5051156;28;20487;-52
2023/01/27 07:40:26;;;;;;;5.25;2.90;;;3.40;99.90;;;;;;5047506;28;20041;-50
2023/01/27 07:42:52;;;;;;;7.25;3.33;;;3.40;99.90;;;;;;5049878;28;20187;-48
2023/01/27 07:45:18;;;;;;;6.68;2.83;;;3.40;99.90;;;;;;5051572;28;20128;-51
2023/01/27 07:47:44;;;;;;;9.02;3.05;;;3.80;99.90;;;;;;5050229;28;20028;-51
2023/01/27 07:50:11;;;;;;;6.47;3.10;;;3.40;99.90;;;;;;5050212;28;20179;-47
2023/01/27 07:52:36;;;;;;;7.18;3.20;;;3.40;99.90;;;;;;5048387;28;20041;-50
2023/01/27 07:55:02;;;;;;;6.88;3.13;;;3.30;99.90;;;;;;5051007;28;20064;-49
2023/01/27 07:57:28;;;;;;;5.70;2.90;;;3.40;99.90;;;;;;5051089;28;20040;-49
2023/01/27 07:59:55;;;;;;;6.53;3.28;;;3.40;99.90;;;;;;5051042;28;20389;-49
2023/01/27 08:02:22;;;;;;;5.35;2.58;;;3.40;99.90;;;;;;5051649;28;20040;-51
2023/01/27 08:04:51;;;;;;;8.20;3.17;;;3.50;99.90;;;;;;5052232;28;20528;-50
2023/01/27 08:07:17;;;;;;;6.00;2.60;;;3.30;99.90;;;;;;5052237;28;20045;-48
2023/01/27 08:09:42;;;;;;;7.00;2.90;;;3.40;99.90;;;;;;5052250;28;20384;-48
2023/01/27 08:12:08;;;;;;;8.18;3.13;;;3.40;99.90;;;;;;5051596;28;20040;-50
2023/01/27 08:14:34;;;;;;;7.45;2.72;;;3.30;99.90;;;;;;5052213;28;20040;-51
2023/01/27 08:17:00;;;;;;;5.93;2.88;;;3.30;99.90;;;;;;5052046;28;20047;-50
2023/01/27 08:19:26;;;;;;;7.10;3.03;;;3.70;99.90;;;;;;5052185;28;20040;-53
2023/01/27 08:21:52;;;;;;;6.25;3.00;;;3.40;99.90;;;;;;5051732;28;20048;-49
2023/01/27 08:24:17;;;;;;;5.97;3.13;;;3.40;99.90;;;;;;5051619;28;20069;-48
2023/01/27 08:26:43;;;;;;;7.22;2.80;;;3.40;99.90;;;;;;5033650;28;20124;-50
2023/01/27 08:29:09;;;;;;;7.05;2.72;;;3.30;99.90;;;;;;5051735;28;20516;-49
2023/01/27 08:31:34;;;;;;;5.05;2.78;;;3.40;99.90;;;;;;5051842;28;20066;-50
2023/01/27 08:34:00;;;;;;;5.85;2.55;;;3.30;99.90;;;;;;5051762;28;20041;-47
2023/01/27 08:36:26;;;;;;;6.82;2.53;;;3.40;99.90;;;;;;5051661;28;20045;-49
2023/01/27 08:38:51;;;;;;;6.35;2.63;;;3.60;99.90;;;;;;5051561;28;20071;-48
2023/01/27 08:41:24;;;;;;;8.60;2.50;;;3.40;99.90;;;;;;5049843;28;20376;-53
2023/01/27 08:43:50;;;;;;;5.80;2.20;;;3.40;99.90;;;;;;5051332;28;20041;-49
2023/01/27 08:46:16;;;;;;;4.65;2.33;;;3.40;99.90;;;;;;5049896;28;20051;-52
2023/01/27 08:48:42;;;;;;;6.55;2.25;;;3.40;99.90;;;;;;5051361;28;20033;-49
2023/01/27 08:51:10;;;;;;;6.22;2.47;;;3.40;99.90;;;;;;5051353;28;20029;-49
2023/01/27 08:53:35;;;;;;;5.80;2.35;;;3.40;99.90;;;;;;5050084;28;20033;-51
2023/01/27 08:56:07;;;;;;;6.03;2.22;;;3.40;99.90;;;;;;5051340;28;20047;-50
2023/01/27 08:58:33;;;;;;;8.95;2.60;;;3.50;99.90;;;;;;5050602;28;20159;-49
2023/01/27 09:01:01;;;;;;;5.05;2.30;;;3.50;99.90;;;;;;5050869;28;20037;-51
2023/01/27 09:03:27;;;;;;;7.00;2.55;;;3.60;99.90;;;;;;5050577;28;20041;-50
2023/01/27 09:05:53;;;;;;;5.85;2.30;;;3.70;99.90;;;;;;5050723;28;20415;-49
2023/01/27 09:08:18;;;;;;;5.97;2.42;;;3.70;99.90;;;;;;5051244;28;20048;-50
2023/01/27 09:10:44;;;;;;;6.18;2.28;;;4.90;99.90;;;;;;5049567;28;20512;-49
2023/01/27 09:13:10;;;;;;;6.68;2.42;;;3.90;99.90;;;;;;5050907;28;20037;-49
2023/01/27 09:15:36;;;;;;;6.10;2.40;;;3.80;99.90;;;;;;5050797;28;20037;-48
2023/01/27 09:18:03;;;;;;;6.50;2.78;;;4.20;99.90;;;;;;5050958;28;20044;-51
2023/01/27 09:20:30;;;;;;;10.80;3.30;;;3.90;99.90;;;;;;5050658;28;20404;-50
2023/01/27 09:22:57;;;;;;;9.82;3.10;;;4.10;99.90;;;;;;5051015;28;20044;-51
2023/01/27 09:25:23;;;;;;;5.03;2.30;;;4.40;99.90;;;;;;5049057;28;20484;-53
2023/01/27 09:27:56;;;;;;;6.10;2.92;;;4.30;99.90;;;;;;5050948;28;20118;-51
2023/01/27 09:30:23;;;;;;;7.60;2.85;;;4.40;99.90;;;;;;5050941;28;20128;-49
2023/01/27 09:32:49;;;;;;;6.75;2.58;;;4.50;99.90;;;;;;5050758;28;20124;-50
2023/01/27 09:35:15;;;;;;;6.50;2.75;;;4.60;99.90;;;;;;5050831;28;20120;-49
2023/01/27 09:37:50;;;;;;;8.55;2.88;;;4.50;99.90;;;;;;5050774;28;20044;-49
2023/01/27 09:40:24;;;;;;;6.40;2.70;;;4.60;99.90;;;;;;5050825;28;20068;-51
2023/01/27 09:43:29;;;;;;;6.68;3.15;;;4.60;99.90;;;;;;5049044;28;20041;-48
2023/01/27 09:46:20;;;;;;;5.32;2.65;;;4.60;99.90;;;;;;5050794;28;20099;-52
2023/01/27 09:48:55;;;;;;;8.10;2.88;;;4.60;99.90;;;;;;5050710;28;20041;-49
2023/01/27 09:51:27;;;;;;;6.10;3.20;;;5.00;99.90;;;;;;5050244;28;20033;-53
2023/01/27 09:54:05;;;;;;;6.63;3.13;;;4.50;99.90;;;;;;5050675;28;20384;-50
2023/01/27 09:56:55;;;;;;;8.98;3.38;;;4.60;99.90;;;;;;5050492;28;20517;-50
2023/01/27 10:00:01;;;;;;;7.45;3.00;;;4.60;99.90;;;;;;5050269;28;20196;-50
2023/01/27 10:02:36;;;;;;;6.55;2.90;;;4.60;99.90;;;;;;5050223;28;20041;-51
2023/01/27 10:05:20;;;;;;;6.50;3.10;;;4.60;99.90;;;;;;5050520;28;20408;-49
2023/01/27 10:08:13;;;;;;;10.05;3.22;;;4.60;99.90;;;;;;5050347;28;20083;-51
2023/01/27 10:11:17;;;;;;;6.32;3.20;;;4.60;99.90;;;;;;5049121;28;20080;-52
2023/01/27 10:13:58;;;;;;;9.73;3.88;;;4.60;99.90;;;;;;5027407;28;20055;-48
2023/01/27 10:16:35;;;;;;;7.28;3.25;;;4.50;99.90;;;;;;5053007;28;20052;-49
2023/01/27 10:19:12;;;;;;;6.70;3.60;;;4.50;99.90;;;;;;5054398;28;20037;-48
2023/01/27 10:21:43;;;;;;;8.07;3.42;;;4.50;99.90;;;;;;5053776;28;20037;-48
2023/01/27 10:24:26;;;;;;;7.47;3.70;;;4.60;99.90;;;;;;5054034;28;20452;-49
2023/01/27 10:27:00;;;;;;;6.10;3.13;;;4.60;99.90;;;;;;5053264;28;20650;-47
2023/01/27 10:29:38;;;;;;;;;;;4.50;99.90;;;;;;5053875;28;20064;-51
2023/01/27 10:32:20;;;;;;;8.40;3.63;;;4.50;99.90;;;;;;5054206;28;19917;-48
2023/01/27 10:35:01;;;;;;;5.63;3.53;;;4.60;99.90;;;;;;5053750;28;20033;-48
2023/01/27 10:38:11;;;;;;;6.28;3.58;;;4.60;99.90;;;;;;5053881;28;20040;-50
2023/01/27 10:41:26;;;;;;;7.38;3.42;;;4.60;99.90;;;;;;5041635;28;20463;-50
2023/01/27 10:43:51;;;;;;;9.27;3.90;;;4.60;99.90;;;;;;5042312;28;20053;-53
2023/01/27 10:46:31;;;;;;;7.22;3.10;;;4.60;99.90;;;;;;5053790;28;20033;-50
2023/01/27 10:49:03;;;;;;;6.70;3.15;;;4.60;99.90;;;;;;5053682;28;20044;-47
2023/01/27 10:51:34;;;;;;;6.35;2.90;;;4.60;99.90;;;;;;5053453;28;20079;-49
2023/01/27 10:54:11;;;;;;;7.95;3.03;;;4.60;99.90;;;;;;5053746;28;20114;-49
2023/01/27 10:57:01;;;;;;;6.53;3.05;;;4.70;99.90;;;;;;5053728;28;20037;-50
2023/01/27 10:59:49;;;;;;;8.23;3.17;;;4.70;99.90;;;;;;5053521;28;20504;-48
2023/01/27 11:02:56;;;;;;;6.05;3.03;;;4.60;99.90;;;;;;5052722;28;20427;-50
2023/01/27 11:05:33;;;;;;;6.28;3.30;;;4.50;99.90;;;;;;5053485;28;20120;-48
2023/01/27 11:08:25;;;;;;;6.43;3.20;;;4.60;99.90;;;;;;5068502;28;20033;-47
2023/01/27 11:13:38;;;;;;;8.05;3.10;;;4.50;99.90;;;;;;5053191;28;20090;-47
2023/01/27 11:16:11;;;;;;;4.95;3.17;;;4.50;99.90;;;;;;5053143;28;20484;-47
2023/01/27 11:18:37;;;;;;;6.82;2.38;;;4.50;99.90;;;;;;5051632;28;20396;-48
2023/01/27 11:21:30;;;;;;;4.38;2.30;;;4.50;99.90;;;;;;5052887;28;20048;-47
2023/01/27 11:23:59;;;;;;;4.03;2.30;;;4.50;99.90;;;;;;5050949;28;20092;-47
2023/01/27 11:26:46;;;;;;;3.70;2.30;;;4.50;99.90;;;;;;5052902;28;20041;-47
2023/01/27 11:29:30;;;;;;;4.82;2.13;;;4.50;99.90;;;;;;5051454;28;20124;-46
2023/01/27 11:32:14;;;;;;;4.85;2.83;;;4.60;99.90;;;;;;5052570;28;20037;-49
2023/01/27 11:35:02;;;;;;;4.43;2.38;;;4.40;99.90;;;;;;5052743;28;20045;-49
2023/01/27 11:37:34;;;;;;;5.40;2.63;;;4.40;99.90;;;;;;5052452;28;20048;-48
2023/01/27 11:40:00;;;;;;;4.13;2.33;;;4.40;99.90;;;;;;5052831;28;20067;-48
2023/01/27 11:42:33;;;;;;;5.15;2.60;;;4.40;99.90;;;;;;5052294;28;20044;-48
2023/01/27 11:45:00;;;;;;;4.88;2.80;;;4.30;99.90;;;;;;5052812;28;20041;-48
2023/01/27 11:47:36;;;;;;;4.40;2.75;;;4.90;99.90;;;;;;5052655;28;20040;-47
2023/01/27 11:50:03;;;;;;;5.45;2.72;;;4.30;99.90;;;;;;5052694;28;20037;-47
2023/01/27 11:52:30;;;;;;;5.28;3.20;;;4.30;99.90;;;;;;5052339;28;20033;-53
2023/01/27 11:55:11;;;;;;;4.75;2.90;;;4.70;99.90;;;;;;5067961;28;20040;-53
2023/01/27 11:57:43;;;;;;;6.07;2.90;;;4.30;99.90;;;;;;5052617;28;20041;-49
2023/01/27 12:00:36;;;;;;;4.95;2.70;;;4.30;99.90;;;;;;5067639;28;20071;-47
2023/01/27 12:03:22;;;;;;;6.50;2.70;;;4.30;99.90;;;;;;5052416;28;20033;-53
2023/01/27 12:05:55;;;;;;;5.20;2.78;;;4.30;99.90;;;;;;5052412;28;20376;-50
2023/01/27 12:08:43;;;;;;;4.30;2.40;;;4.30;99.90;;;;;;5052018;28;20041;-50
2023/01/27 12:11:24;;;;;;;3.83;2.50;;;4.40;99.90;;;;;;5051707;28;20044;-49
2023/01/27 12:13:53;;;;;;;4.45;2.55;;;4.40;99.90;;;;;;5051608;28;20053;-51
2023/01/27 12:16:20;;;;;;;4.38;2.40;;;4.40;99.90;;;;;;5051876;28;20067;-50
2023/01/27 12:18:52;;;;;;;5.43;2.72;;;4.50;99.90;;;;;;5052037;28;20480;-52
2023/01/27 12:21:18;;;;;;;12.52;3.60;;;4.50;99.90;;;;;;5051738;28;20482;-49
2023/01/27 12:23:51;;;;;;;5.55;2.70;;;4.00;99.90;;;;;;5051376;28;20048;-53
2023/01/27 12:26:36;;;;;;;6.93;3.25;;;4.50;99.90;;;;;;5052009;28;20052;-51
2023/01/27 12:29:13;;;;;;;6.60;2.67;;;4.50;99.90;;;;;;5051765;28;20025;-50
2023/01/27 12:31:46;;;;;;;4.63;2.72;;;4.40;99.90;;;;;;5051847;28;20396;-53
2023/01/27 12:34:23;;;;;;;7.40;2.95;;;4.50;99.90;;;;;;5052059;28;20384;-52
2023/01/27 12:36:50;;;;;;;5.00;2.70;;;4.60;99.90;;;;;;5050305;28;20040;-47
2023/01/27 12:39:34;;;;;;;6.65;2.63;;;4.50;99.90;;;;;;5050722;28;20523;-46
2023/01/27 12:42:00;;;;;;;;;;;4.50;99.90;;;;;;5051663;28;20472;-50
2023/01/27 12:44:31;;;;;;;5.05;2.33;;;4.80;99.90;;;;;;5049954;28;19928;-50
2023/01/27 12:47:02;;;;;;;5.72;2.70;;;4.50;99.90;;;;;;5051704;28;20044;-48
2023/01/27 12:49:36;;;;;;;4.95;2.30;;;4.50;99.90;;;;;;5049402;28;20041;-48
2023/01/27 12:52:07;;;;;;;4.80;2.45;;;4.50;99.90;;;;;;5051419;28;20475;-50
2023/01/27 12:54:33;;;;;;;5.05;2.92;;;4.50;99.90;;;;;;5050022;28;20078;-50
2023/01/27 12:57:04;;;;;;;5.25;2.78;;;4.50;99.90;;;;;;5051280;28;20556;-48
2023/01/27 12:59:32;;;;;;;4.95;2.83;;;4.50;99.90;;;;;;5051295;28;20116;-48
2023/01/27 13:02:16;;;;;;;5.47;2.50;;;4.40;99.90;;;;;;5049657;28;20037;-53
2023/01/27 13:04:43;;;;;;;5.03;2.70;;;4.50;99.90;;;;;;5051345;28;20063;-47
2023/01/27 13:07:16;;;;;;;6.13;2.70;;;4.40;99.90;;;;;;5051116;28;20429;-49
2023/01/27 13:09:57;;;;;;;4.15;2.30;;;4.40;99.90;;;;;;5051223;28;20120;-52
2023/01/27 13:12:28;;;;;;;5.18;2.20;;;4.40;99.90;;;;;;5049367;28;20041;-50
2023/01/27 13:15:05;;;;;;;5.95;2.72;;;4.40;99.90;;;;;;5050237;28;20069;-51
2023/01/27 13:17:40;;;;;;;4.20;2.38;;;4.40;99.90;;;;;;5050780;28;20044;-51
2023/01/27 13:20:18;;;;;;;5.68;2.22;;;4.40;99.90;;;;;;5050707;28;20041;-50
2023/01/27 13:22:47;;;;;;;4.70;2.10;;;4.40;99.90;;;;;;5050722;28;20029;-51
2023/01/27 13:25:42;;;;;;;3.83;2.15;;;4.40;99.90;;;;;;5049821;28;20047;-49
2023/01/27 13:28:16;;;;;;;3.83;1.90;;;4.30;99.90;;;;;;5032834;28;20048;-50
2023/01/27 13:30:46;;;;;;;4.18;2.20;;;4.40;99.90;;;;;;5050704;28;20032;-51
2023/01/27 13:33:31;;;;;;;3.65;1.90;;;4.40;99.90;;;;;;5050977;28;20507;-48
2023/01/27 13:36:03;;;;;;;;;;;4.40;99.90;;;;;;5051219;28;20115;-50
2023/01/27 13:38:47;;;;;;;4.38;2.08;;;4.40;99.90;;;;;;5050567;28;19923;-51
2023/01/27 13:41:21;;;;;;;3.90;1.90;;;4.40;99.90;;;;;;5050139;28;20048;-49
2023/01/27 13:44:15;;;;;;;4.23;2.30;;;4.40;99.90;;;;;;5050468;28;20041;-51
2023/01/27 13:46:41;;;;;;;3.97;2.03;;;4.30;99.90;;;;;;5047647;28;20275;-52
2023/01/27 13:49:41;;;;;;;5.30;2.25;;;4.30;99.90;;;;;;5050631;28;20094;-52